sensor_id;sensor_type;location;lat;lon;timestamp;P1;durP1;ratioP1;P2;durP2;ratioP2
48873;SDS011;35220;46.204;5.220;2022-07-18T00:01:43;5.63;;;3.23;;
48873;SDS011;35220;46.204;5.220;2022-07-18T00:06:43;3.70;;;3.03;;
48873;SDS011;35220;46.204;5.220;2022-07-18T00:11:44;4.23;;;2.50;;
48873;SDS011;35220;46.204;5.220;2022-07-18T00:16:45;3.58;;;2.30;;
48873;SDS011;35220;46.204;5.220;2022-07-18T00:21:45;3.25;;;2.13;;
48873;SDS011;35220;46.204;5.220;2022-07-18T00:26:46;4.17;;;2.30;;
48873;SDS011;35220;46.204;5.220;2022-07-18T00:31:46;3.95;;;2.30;;
48873;SDS011;35220;46.204;5.220;2022-07-18T00:36:47;3.65;;;2.08;;
48873;SDS011;35220;46.204;5.220;2022-07-18T00:41:47;2.67;;;1.60;;
48873;SDS011;35220;46.204;5.220;2022-07-18T00:46:49;3.75;;;2.20;;
48873;SDS011;35220;46.204;5.220;2022-07-18T00:51:50;5.38;;;2.17;;
48873;SDS011;35220;46.204;5.220;2022-07-18T00:56:51;3.60;;;2.05;;
48873;SDS011;35220;46.204;5.220;2022-07-18T01:01:52;2.28;;;1.67;;
48873;SDS011;35220;46.204;5.220;2022-07-18T01:06:52;7.82;;;2.10;;
48873;SDS011;35220;46.204;5.220;2022-07-18T01:11:53;5.90;;;2.13;;
48873;SDS011;35220;46.204;5.220;2022-07-18T01:16:53;2.90;;;1.65;;
48873;SDS011;35220;46.204;5.220;2022-07-18T01:21:54;4.75;;;2.10;;
48873;SDS011;35220;46.204;5.220;2022-07-18T01:26:54;4.55;;;2.15;;
48873;SDS011;35220;46.204;5.220;2022-07-18T01:31:55;2.57;;;2.00;;
48873;SDS011;35220;46.204;5.220;2022-07-18T01:36:55;3.07;;;2.10;;
48873;SDS011;35220;46.204;5.220;2022-07-18T01:41:56;3.78;;;2.30;;
48873;SDS011;35220;46.204;5.220;2022-07-18T01:47:02;4.15;;;2.40;;
48873;SDS011;35220;46.204;5.220;2022-07-18T01:52:04;5.55;;;2.35;;
48873;SDS011;35220;46.204;5.220;2022-07-18T01:57:05;3.75;;;1.95;;
48873;SDS011;35220;46.204;5.220;2022-07-18T02:02:06;3.17;;;2.42;;
48873;SDS011;35220;46.204;5.220;2022-07-18T02:07:07;3.87;;;2.20;;
48873;SDS011;35220;46.204;5.220;2022-07-18T02:12:07;3.00;;;2.38;;
48873;SDS011;35220;46.204;5.220;2022-07-18T02:17:08;5.47;;;2.20;;
48873;SDS011;35220;46.204;5.220;2022-07-18T02:22:08;3.83;;;1.93;;
48873;SDS011;35220;46.204;5.220;2022-07-18T02:27:09;2.97;;;2.00;;
48873;SDS011;35220;46.204;5.220;2022-07-18T02:32:09;4.53;;;2.30;;
48873;SDS011;35220;46.204;5.220;2022-07-18T02:37:10;4.53;;;2.20;;
48873;SDS011;35220;46.204;5.220;2022-07-18T02:42:11;6.88;;;2.30;;
48873;SDS011;35220;46.204;5.220;2022-07-18T02:47:11;3.63;;;2.27;;
48873;SDS011;35220;46.204;5.220;2022-07-18T02:52:11;3.43;;;2.47;;
48873;SDS011;35220;46.204;5.220;2022-07-18T02:57:12;3.70;;;1.80;;
48873;SDS011;35220;46.204;5.220;2022-07-18T03:02:12;3.28;;;2.08;;
48873;SDS011;35220;46.204;5.220;2022-07-18T03:07:13;3.08;;;2.13;;
48873;SDS011;35220;46.204;5.220;2022-07-18T03:12:13;4.40;;;2.10;;
48873;SDS011;35220;46.204;5.220;2022-07-18T03:17:14;3.55;;;2.60;;
48873;SDS011;35220;46.204;5.220;2022-07-18T03:22:14;4.13;;;2.27;;
48873;SDS011;35220;46.204;5.220;2022-07-18T03:27:15;4.50;;;2.65;;
48873;SDS011;35220;46.204;5.220;2022-07-18T03:32:15;3.07;;;2.40;;
48873;SDS011;35220;46.204;5.220;2022-07-18T03:37:15;3.38;;;2.22;;
48873;SDS011;35220;46.204;5.220;2022-07-18T03:42:16;3.93;;;2.40;;
48873;SDS011;35220;46.204;5.220;2022-07-18T03:47:16;3.67;;;2.42;;
48873;SDS011;35220;46.204;5.220;2022-07-18T03:52:17;4.47;;;2.77;;
48873;SDS011;35220;46.204;5.220;2022-07-18T03:57:17;5.53;;;2.75;;
48873;SDS011;35220;46.204;5.220;2022-07-18T04:02:17;3.63;;;2.10;;
48873;SDS011;35220;46.204;5.220;2022-07-18T04:07:18;3.00;;;2.27;;
48873;SDS011;35220;46.204;5.220;2022-07-18T04:12:18;8.87;;;2.80;;
48873;SDS011;35220;46.204;5.220;2022-07-18T04:17:19;2.97;;;2.10;;
48873;SDS011;35220;46.204;5.220;2022-07-18T04:22:19;4.28;;;2.63;;
48873;SDS011;35220;46.204;5.220;2022-07-18T04:27:19;7.13;;;2.70;;
48873;SDS011;35220;46.204;5.220;2022-07-18T04:32:20;6.07;;;2.30;;
48873;SDS011;35220;46.204;5.220;2022-07-18T04:37:20;3.80;;;2.25;;
48873;SDS011;35220;46.204;5.220;2022-07-18T04:42:21;3.83;;;2.40;;
48873;SDS011;35220;46.204;5.220;2022-07-18T04:47:21;4.03;;;2.37;;
48873;SDS011;35220;46.204;5.220;2022-07-18T04:52:21;7.83;;;2.73;;
48873;SDS011;35220;46.204;5.220;2022-07-18T04:57:22;3.90;;;2.60;;
48873;SDS011;35220;46.204;5.220;2022-07-18T05:02:22;4.50;;;2.60;;
48873;SDS011;35220;46.204;5.220;2022-07-18T05:07:23;4.75;;;2.70;;
48873;SDS011;35220;46.204;5.220;2022-07-18T05:12:23;4.18;;;2.63;;
48873;SDS011;35220;46.204;5.220;2022-07-18T05:17:24;4.37;;;2.57;;
48873;SDS011;35220;46.204;5.220;2022-07-18T05:22:24;4.00;;;2.73;;
48873;SDS011;35220;46.204;5.220;2022-07-18T05:27:24;5.40;;;2.92;;
48873;SDS011;35220;46.204;5.220;2022-07-18T05:32:25;4.23;;;2.40;;
48873;SDS011;35220;46.204;5.220;2022-07-18T05:37:26;8.93;;;2.90;;
48873;SDS011;35220;46.204;5.220;2022-07-18T05:42:27;3.88;;;2.15;;
48873;SDS011;35220;46.204;5.220;2022-07-18T05:47:27;4.07;;;2.57;;
48873;SDS011;35220;46.204;5.220;2022-07-18T05:52:27;7.43;;;2.60;;
48873;SDS011;35220;46.204;5.220;2022-07-18T05:57:28;5.15;;;2.20;;
48873;SDS011;35220;46.204;5.220;2022-07-18T06:02:28;8.43;;;2.50;;
48873;SDS011;35220;46.204;5.220;2022-07-18T06:07:28;4.47;;;2.27;;
48873;SDS011;35220;46.204;5.220;2022-07-18T06:12:29;4.28;;;3.22;;
48873;SDS011;35220;46.204;5.220;2022-07-18T06:17:33;5.65;;;2.20;;
48873;SDS011;35220;46.204;5.220;2022-07-18T06:22:34;4.75;;;2.33;;
48873;SDS011;35220;46.204;5.220;2022-07-18T06:27:35;3.85;;;2.58;;
48873;SDS011;35220;46.204;5.220;2022-07-18T06:32:36;4.22;;;2.75;;
48873;SDS011;35220;46.204;5.220;2022-07-18T06:37:37;4.40;;;2.88;;
48873;SDS011;35220;46.204;5.220;2022-07-18T06:42:37;4.47;;;2.70;;
48873;SDS011;35220;46.204;5.220;2022-07-18T06:47:38;7.73;;;2.60;;
48873;SDS011;35220;46.204;5.220;2022-07-18T06:52:39;6.20;;;2.60;;
48873;SDS011;35220;46.204;5.220;2022-07-18T06:57:40;4.93;;;2.90;;
48873;SDS011;35220;46.204;5.220;2022-07-18T07:02:46;10.65;;;3.08;;
48873;SDS011;35220;46.204;5.220;2022-07-18T07:07:48;6.50;;;3.10;;
48873;SDS011;35220;46.204;5.220;2022-07-18T07:12:49;4.97;;;2.83;;
48873;SDS011;35220;46.204;5.220;2022-07-18T07:17:51;4.30;;;3.00;;
48873;SDS011;35220;46.204;5.220;2022-07-18T07:22:54;7.72;;;2.78;;
48873;SDS011;35220;46.204;5.220;2022-07-18T07:27:56;4.20;;;3.00;;
48873;SDS011;35220;46.204;5.220;2022-07-18T07:32:56;4.80;;;3.10;;
48873;SDS011;35220;46.204;5.220;2022-07-18T07:37:57;4.88;;;2.95;;
48873;SDS011;35220;46.204;5.220;2022-07-18T07:43:09;5.20;;;2.42;;
48873;SDS011;35220;46.204;5.220;2022-07-18T07:48:13;7.43;;;2.70;;
48873;SDS011;35220;46.204;5.220;2022-07-18T07:53:14;4.20;;;2.70;;
48873;SDS011;35220;46.204;5.220;2022-07-18T07:58:15;8.17;;;2.67;;
48873;SDS011;35220;46.204;5.220;2022-07-18T08:03:15;5.55;;;2.88;;
48873;SDS011;35220;46.204;5.220;2022-07-18T08:08:16;4.90;;;2.57;;
48873;SDS011;35220;46.204;5.220;2022-07-18T08:13:17;5.72;;;2.70;;
48873;SDS011;35220;46.204;5.220;2022-07-18T08:18:18;6.60;;;3.00;;
48873;SDS011;35220;46.204;5.220;2022-07-18T08:23:18;5.87;;;3.23;;
48873;SDS011;35220;46.204;5.220;2022-07-18T08:28:19;3.77;;;2.43;;
48873;SDS011;35220;46.204;5.220;2022-07-18T08:33:19;6.45;;;2.83;;
48873;SDS011;35220;46.204;5.220;2022-07-18T08:38:19;7.63;;;2.90;;
48873;SDS011;35220;46.204;5.220;2022-07-18T08:43:20;6.50;;;2.90;;
48873;SDS011;35220;46.204;5.220;2022-07-18T08:48:20;4.70;;;2.95;;
48873;SDS011;35220;46.204;5.220;2022-07-18T08:53:21;11.40;;;3.20;;
48873;SDS011;35220;46.204;5.220;2022-07-18T08:58:21;3.35;;;2.88;;
48873;SDS011;35220;46.204;5.220;2022-07-18T09:03:22;6.80;;;2.50;;
48873;SDS011;35220;46.204;5.220;2022-07-18T09:08:22;5.03;;;2.70;;
48873;SDS011;35220;46.204;5.220;2022-07-18T09:18:44;4.53;;;2.85;;
48873;SDS011;35220;46.204;5.220;2022-07-18T09:23:47;3.58;;;2.30;;
48873;SDS011;35220;46.204;5.220;2022-07-18T09:28:53;4.05;;;2.50;;
48873;SDS011;35220;46.204;5.220;2022-07-18T09:33:54;5.25;;;2.38;;
48873;SDS011;35220;46.204;5.220;2022-07-18T09:38:56;6.47;;;2.47;;
48873;SDS011;35220;46.204;5.220;2022-07-18T09:43:57;4.47;;;2.42;;
48873;SDS011;35220;46.204;5.220;2022-07-18T09:49:08;3.95;;;2.50;;
48873;SDS011;35220;46.204;5.220;2022-07-18T09:54:09;2.70;;;2.30;;
48873;SDS011;35220;46.204;5.220;2022-07-18T09:59:09;5.97;;;3.03;;
48873;SDS011;35220;46.204;5.220;2022-07-18T10:04:10;5.07;;;2.90;;
48873;SDS011;35220;46.204;5.220;2022-07-18T10:09:11;6.70;;;2.90;;
48873;SDS011;35220;46.204;5.220;2022-07-18T10:14:11;3.55;;;2.72;;
48873;SDS011;35220;46.204;5.220;2022-07-18T10:19:12;4.30;;;2.92;;
48873;SDS011;35220;46.204;5.220;2022-07-18T10:24:13;3.63;;;2.28;;
48873;SDS011;35220;46.204;5.220;2022-07-18T10:29:17;4.28;;;2.53;;
48873;SDS011;35220;46.204;5.220;2022-07-18T10:34:17;4.68;;;2.80;;
48873;SDS011;35220;46.204;5.220;2022-07-18T10:39:32;3.05;;;2.63;;
48873;SDS011;35220;46.204;5.220;2022-07-18T10:44:37;3.40;;;3.08;;
48873;SDS011;35220;46.204;5.220;2022-07-18T11:00:18;3.95;;;2.45;;
48873;SDS011;35220;46.204;5.220;2022-07-18T11:11:12;4.45;;;2.88;;
48873;SDS011;35220;46.204;5.220;2022-07-18T11:26:20;6.03;;;2.65;;
48873;SDS011;35220;46.204;5.220;2022-07-18T11:31:21;6.38;;;2.60;;
48873;SDS011;35220;46.204;5.220;2022-07-18T11:36:23;9.50;;;2.72;;
48873;SDS011;35220;46.204;5.220;2022-07-18T11:41:30;3.53;;;2.60;;
48873;SDS011;35220;46.204;5.220;2022-07-18T11:46:30;5.43;;;2.92;;
48873;SDS011;35220;46.204;5.220;2022-07-18T11:51:35;5.43;;;2.30;;
48873;SDS011;35220;46.204;5.220;2022-07-18T11:56:45;4.53;;;2.67;;
48873;SDS011;35220;46.204;5.220;2022-07-18T12:01:49;4.25;;;2.35;;
48873;SDS011;35220;46.204;5.220;2022-07-18T12:12:38;2.97;;;2.17;;
48873;SDS011;35220;46.204;5.220;2022-07-18T12:17:48;4.10;;;2.30;;
48873;SDS011;35220;46.204;5.220;2022-07-18T12:23:06;6.10;;;2.30;;
48873;SDS011;35220;46.204;5.220;2022-07-18T12:28:12;4.82;;;2.78;;
48873;SDS011;35220;46.204;5.220;2022-07-18T12:33:16;6.72;;;2.65;;
48873;SDS011;35220;46.204;5.220;2022-07-18T12:38:17;3.33;;;2.25;;
48873;SDS011;35220;46.204;5.220;2022-07-18T12:43:25;4.32;;;2.50;;
48873;SDS011;35220;46.204;5.220;2022-07-18T12:48:27;5.00;;;2.20;;
48873;SDS011;35220;46.204;5.220;2022-07-18T12:53:29;3.25;;;2.13;;
48873;SDS011;35220;46.204;5.220;2022-07-18T12:58:31;2.85;;;2.13;;
48873;SDS011;35220;46.204;5.220;2022-07-18T13:03:32;3.92;;;2.10;;
48873;SDS011;35220;46.204;5.220;2022-07-18T13:08:34;3.75;;;2.30;;
48873;SDS011;35220;46.204;5.220;2022-07-18T13:13:34;3.03;;;2.33;;
48873;SDS011;35220;46.204;5.220;2022-07-18T13:18:35;6.63;;;2.33;;
48873;SDS011;35220;46.204;5.220;2022-07-18T13:23:35;3.83;;;2.17;;
48873;SDS011;35220;46.204;5.220;2022-07-18T13:28:35;5.13;;;2.30;;
48873;SDS011;35220;46.204;5.220;2022-07-18T13:33:36;4.57;;;1.97;;
48873;SDS011;35220;46.204;5.220;2022-07-18T13:38:36;3.63;;;2.08;;
48873;SDS011;35220;46.204;5.220;2022-07-18T13:43:37;3.25;;;2.00;;
48873;SDS011;35220;46.204;5.220;2022-07-18T13:48:40;3.08;;;2.03;;
48873;SDS011;35220;46.204;5.220;2022-07-18T13:53:40;3.45;;;1.95;;
48873;SDS011;35220;46.204;5.220;2022-07-18T13:58:41;2.67;;;2.10;;
48873;SDS011;35220;46.204;5.220;2022-07-18T14:03:41;4.78;;;1.88;;
48873;SDS011;35220;46.204;5.220;2022-07-18T14:08:42;4.53;;;2.10;;
48873;SDS011;35220;46.204;5.220;2022-07-18T14:13:42;4.00;;;2.42;;
48873;SDS011;35220;46.204;5.220;2022-07-18T14:18:43;3.97;;;2.00;;
48873;SDS011;35220;46.204;5.220;2022-07-18T14:23:43;3.07;;;2.00;;
48873;SDS011;35220;46.204;5.220;2022-07-18T14:28:44;4.53;;;2.42;;
48873;SDS011;35220;46.204;5.220;2022-07-18T14:33:44;3.00;;;2.00;;
48873;SDS011;35220;46.204;5.220;2022-07-18T14:38:45;3.47;;;2.37;;
48873;SDS011;35220;46.204;5.220;2022-07-18T14:43:45;6.95;;;2.63;;
48873;SDS011;35220;46.204;5.220;2022-07-18T14:48:46;4.20;;;2.30;;
48873;SDS011;35220;46.204;5.220;2022-07-18T14:53:48;2.40;;;2.20;;
48873;SDS011;35220;46.204;5.220;2022-07-18T14:58:48;8.37;;;2.50;;
48873;SDS011;35220;46.204;5.220;2022-07-18T15:03:49;5.97;;;2.33;;
48873;SDS011;35220;46.204;5.220;2022-07-18T15:08:49;5.07;;;2.17;;
48873;SDS011;35220;46.204;5.220;2022-07-18T15:13:50;4.00;;;2.30;;
48873;SDS011;35220;46.204;5.220;2022-07-18T15:18:51;4.82;;;2.65;;
48873;SDS011;35220;46.204;5.220;2022-07-18T15:23:51;5.07;;;2.33;;
48873;SDS011;35220;46.204;5.220;2022-07-18T15:28:52;3.13;;;1.90;;
48873;SDS011;35220;46.204;5.220;2022-07-18T15:33:52;5.57;;;2.50;;
48873;SDS011;35220;46.204;5.220;2022-07-18T15:38:53;6.05;;;2.42;;
48873;SDS011;35220;46.204;5.220;2022-07-18T15:43:54;5.20;;;2.65;;
48873;SDS011;35220;46.204;5.220;2022-07-18T15:48:54;7.73;;;2.43;;
48873;SDS011;35220;46.204;5.220;2022-07-18T15:53:55;3.53;;;2.00;;
48873;SDS011;35220;46.204;5.220;2022-07-18T15:58:55;5.40;;;2.07;;
48873;SDS011;35220;46.204;5.220;2022-07-18T16:03:56;4.33;;;2.23;;
48873;SDS011;35220;46.204;5.220;2022-07-18T16:08:57;4.85;;;1.83;;
48873;SDS011;35220;46.204;5.220;2022-07-18T16:13:58;5.97;;;2.17;;
48873;SDS011;35220;46.204;5.220;2022-07-18T16:18:59;5.18;;;2.13;;
48873;SDS011;35220;46.204;5.220;2022-07-18T16:24:00;7.13;;;2.60;;
48873;SDS011;35220;46.204;5.220;2022-07-18T16:29:01;4.05;;;1.92;;
48873;SDS011;35220;46.204;5.220;2022-07-18T16:34:02;7.07;;;2.22;;
48873;SDS011;35220;46.204;5.220;2022-07-18T16:39:03;4.40;;;2.33;;
48873;SDS011;35220;46.204;5.220;2022-07-18T16:44:04;3.10;;;1.87;;
48873;SDS011;35220;46.204;5.220;2022-07-18T16:49:05;5.60;;;2.10;;
48873;SDS011;35220;46.204;5.220;2022-07-18T16:54:05;4.95;;;2.38;;
48873;SDS011;35220;46.204;5.220;2022-07-18T16:59:06;6.55;;;2.42;;
48873;SDS011;35220;46.204;5.220;2022-07-18T17:04:07;5.75;;;2.00;;
48873;SDS011;35220;46.204;5.220;2022-07-18T17:09:08;3.60;;;2.08;;
48873;SDS011;35220;46.204;5.220;2022-07-18T17:14:08;3.45;;;2.25;;
48873;SDS011;35220;46.204;5.220;2022-07-18T17:19:09;9.45;;;2.40;;
48873;SDS011;35220;46.204;5.220;2022-07-18T17:24:10;8.32;;;2.72;;
48873;SDS011;35220;46.204;5.220;2022-07-18T17:29:10;10.95;;;2.75;;
48873;SDS011;35220;46.204;5.220;2022-07-18T17:34:12;3.17;;;2.38;;
48873;SDS011;35220;46.204;5.220;2022-07-18T17:39:15;7.05;;;2.45;;
48873;SDS011;35220;46.204;5.220;2022-07-18T17:44:16;7.72;;;2.65;;
48873;SDS011;35220;46.204;5.220;2022-07-18T17:49:18;7.90;;;2.55;;
48873;SDS011;35220;46.204;5.220;2022-07-18T17:54:19;5.95;;;2.45;;
48873;SDS011;35220;46.204;5.220;2022-07-18T17:59:20;7.88;;;2.75;;
48873;SDS011;35220;46.204;5.220;2022-07-18T18:04:20;5.20;;;2.50;;
48873;SDS011;35220;46.204;5.220;2022-07-18T18:09:21;6.80;;;2.87;;
48873;SDS011;35220;46.204;5.220;2022-07-18T18:14:21;3.80;;;2.23;;
48873;SDS011;35220;46.204;5.220;2022-07-18T18:19:22;7.30;;;2.60;;
48873;SDS011;35220;46.204;5.220;2022-07-18T18:24:22;7.37;;;2.40;;
48873;SDS011;35220;46.204;5.220;2022-07-18T18:29:23;5.03;;;2.80;;
48873;SDS011;35220;46.204;5.220;2022-07-18T18:34:23;4.80;;;2.80;;
48873;SDS011;35220;46.204;5.220;2022-07-18T18:39:34;9.50;;;2.77;;
48873;SDS011;35220;46.204;5.220;2022-07-18T18:44:36;9.97;;;2.93;;
48873;SDS011;35220;46.204;5.220;2022-07-18T18:49:37;5.40;;;3.78;;
48873;SDS011;35220;46.204;5.220;2022-07-18T18:54:38;11.10;;;3.10;;
48873;SDS011;35220;46.204;5.220;2022-07-18T18:59:38;9.83;;;3.23;;
48873;SDS011;35220;46.204;5.220;2022-07-18T19:04:39;6.68;;;2.95;;
48873;SDS011;35220;46.204;5.220;2022-07-18T19:09:39;7.03;;;3.33;;
48873;SDS011;35220;46.204;5.220;2022-07-18T19:14:40;9.65;;;3.78;;
48873;SDS011;35220;46.204;5.220;2022-07-18T19:19:40;9.73;;;3.60;;
48873;SDS011;35220;46.204;5.220;2022-07-18T19:24:41;10.07;;;3.80;;
48873;SDS011;35220;46.204;5.220;2022-07-18T19:29:41;7.73;;;3.57;;
48873;SDS011;35220;46.204;5.220;2022-07-18T19:34:42;9.35;;;4.10;;
48873;SDS011;35220;46.204;5.220;2022-07-18T19:39:42;8.68;;;3.60;;
48873;SDS011;35220;46.204;5.220;2022-07-18T19:44:43;7.88;;;3.25;;
48873;SDS011;35220;46.204;5.220;2022-07-18T19:49:43;8.60;;;3.50;;
48873;SDS011;35220;46.204;5.220;2022-07-18T19:54:44;7.67;;;3.43;;
48873;SDS011;35220;46.204;5.220;2022-07-18T19:59:44;7.80;;;3.22;;
48873;SDS011;35220;46.204;5.220;2022-07-18T20:04:44;10.23;;;3.50;;
48873;SDS011;35220;46.204;5.220;2022-07-18T20:09:45;8.80;;;3.53;;
48873;SDS011;35220;46.204;5.220;2022-07-18T20:14:45;9.60;;;3.80;;
48873;SDS011;35220;46.204;5.220;2022-07-18T20:19:46;7.13;;;3.97;;
48873;SDS011;35220;46.204;5.220;2022-07-18T20:24:46;8.05;;;3.75;;
48873;SDS011;35220;46.204;5.220;2022-07-18T20:29:47;8.53;;;3.80;;
48873;SDS011;35220;46.204;5.220;2022-07-18T20:34:47;8.10;;;3.60;;
48873;SDS011;35220;46.204;5.220;2022-07-18T20:39:48;7.20;;;3.50;;
48873;SDS011;35220;46.204;5.220;2022-07-18T20:44:48;7.07;;;3.50;;
48873;SDS011;35220;46.204;5.220;2022-07-18T20:49:48;6.60;;;3.30;;
48873;SDS011;35220;46.204;5.220;2022-07-18T20:54:49;9.00;;;3.73;;
48873;SDS011;35220;46.204;5.220;2022-07-18T20:59:49;11.30;;;3.67;;
48873;SDS011;35220;46.204;5.220;2022-07-18T21:04:50;9.37;;;3.53;;
48873;SDS011;35220;46.204;5.220;2022-07-18T21:09:50;11.53;;;3.57;;
48873;SDS011;35220;46.204;5.220;2022-07-18T21:14:50;8.10;;;3.25;;
48873;SDS011;35220;46.204;5.220;2022-07-18T21:20:07;5.45;;;2.75;;
48873;SDS011;35220;46.204;5.220;2022-07-18T21:25:10;7.60;;;3.13;;
48873;SDS011;35220;46.204;5.220;2022-07-18T21:30:11;11.47;;;3.30;;
48873;SDS011;35220;46.204;5.220;2022-07-18T21:35:15;11.10;;;2.95;;
48873;SDS011;35220;46.204;5.220;2022-07-18T21:40:16;9.40;;;3.40;;
48873;SDS011;35220;46.204;5.220;2022-07-18T21:45:17;7.53;;;3.05;;
48873;SDS011;35220;46.204;5.220;2022-07-18T21:50:19;6.70;;;2.88;;
48873;SDS011;35220;46.204;5.220;2022-07-18T21:55:20;4.17;;;2.93;;
48873;SDS011;35220;46.204;5.220;2022-07-18T22:00:20;8.68;;;2.85;;
48873;SDS011;35220;46.204;5.220;2022-07-18T22:05:21;6.43;;;2.50;;
48873;SDS011;35220;46.204;5.220;2022-07-18T22:10:21;5.45;;;2.83;;
48873;SDS011;35220;46.204;5.220;2022-07-18T22:15:22;4.53;;;2.67;;
48873;SDS011;35220;46.204;5.220;2022-07-18T22:20:22;7.85;;;3.15;;
48873;SDS011;35220;46.204;5.220;2022-07-18T22:25:23;9.85;;;3.15;;
48873;SDS011;35220;46.204;5.220;2022-07-18T22:30:24;4.70;;;2.70;;
48873;SDS011;35220;46.204;5.220;2022-07-18T22:35:24;9.43;;;2.75;;
48873;SDS011;35220;46.204;5.220;2022-07-18T22:40:25;6.90;;;3.08;;
48873;SDS011;35220;46.204;5.220;2022-07-18T22:45:25;4.90;;;2.50;;
48873;SDS011;35220;46.204;5.220;2022-07-18T22:50:26;8.43;;;2.80;;
48873;SDS011;35220;46.204;5.220;2022-07-18T22:55:26;6.70;;;2.97;;
48873;SDS011;35220;46.204;5.220;2022-07-18T23:00:26;12.50;;;3.10;;
48873;SDS011;35220;46.204;5.220;2022-07-18T23:05:27;8.17;;;3.00;;
48873;SDS011;35220;46.204;5.220;2022-07-18T23:10:29;8.33;;;3.33;;
48873;SDS011;35220;46.204;5.220;2022-07-18T23:15:32;7.67;;;3.23;;
48873;SDS011;35220;46.204;5.220;2022-07-18T23:20:34;12.95;;;2.97;;
48873;SDS011;35220;46.204;5.220;2022-07-18T23:25:35;7.47;;;2.78;;
48873;SDS011;35220;46.204;5.220;2022-07-18T23:30:35;5.18;;;2.78;;
48873;SDS011;35220;46.204;5.220;2022-07-18T23:35:36;4.93;;;2.77;;
48873;SDS011;35220;46.204;5.220;2022-07-18T23:40:36;7.37;;;2.77;;
48873;SDS011;35220;46.204;5.220;2022-07-18T23:45:37;7.13;;;3.33;;
48873;SDS011;35220;46.204;5.220;2022-07-18T23:50:37;8.70;;;2.83;;
48873;SDS011;35220;46.204;5.220;2022-07-18T23:55:38;5.63;;;3.07;;
